Latest Weather Observations for Dunalley

IDT60901

Issued at 11:35 pm EDT Friday 24 October 2014 (issued every 10 minutes, with the page automatically refreshed every 10 minutes)

About weather observations | Map of Hobart area stations | Latest observations for Hobart area | Other Formats
Station Details ID: 094254 Name: DUNALLEY (STROUD POINT) Lat: -42.90 Lon: 147.79 Height: 12.43 m
Data from the previous 72 hours. | See also: Recent months at Dunalley
Date/Time
EDT
Tmp

°C
App
Tmp
°C
Dew
Point
°C
Rel
Hum
%
Delta-T

°C
Wind Press
QNH
hPa
Press
MSL
hPa
Rain
since
9 am
mm
Dir
 
Spd
km/h
Gust
km/h
Spd
kts
Gust
kts
24/11:30pm 14.0 14.0 13.7 98 0.2 NE 6 7 3 4 1008.1 1008.1 0.0
24/11:00pm 14.1 13.9 13.6 97 0.3 NE 7 11 4 6 1008.1 1008.1 0.0
24/10:30pm 14.4 14.3 13.8 96 0.3 NE 7 11 4 6 1008.2 1008.2 0.0
24/10:00pm 14.6 12.1 14.0 96 0.3 NE 20 24 11 13 1008.2 1008.2 0.0
24/09:30pm 14.9 13.4 14.1 95 0.5 NE 15 19 8 10 1008.7 1008.7 0.0
24/09:00pm 15.0 12.7 14.0 94 0.6 ENE 19 24 10 13 1008.9 1008.9 0.0
24/08:30pm 15.0 14.6 14.0 94 0.6 NE 9 15 5 8 1008.5 1008.5 0.0
24/08:00pm 14.7 10.3 14.1 96 0.3 ENE 30 37 16 20 1008.1 1008.1 0.0
24/07:30pm 15.1 10.3 14.0 93 0.6 NE 32 43 17 23 1007.8 1007.8 0.0
24/07:00pm 15.3 10.3 14.0 92 0.7 NE 33 44 18 24 1008.5 1008.5 0.0
24/06:30pm 15.4 10.1 14.1 92 0.7 NE 35 44 19 24 1009.1 1009.1 0.0
24/06:00pm 15.4 10.1 14.1 92 0.7 NE 35 43 19 23 1009.7 1009.7 0.0
24/05:30pm 15.3 12.5 14.2 93 0.6 NE 22 32 12 17 1010.4 1010.4 0.0
24/05:00pm 15.3 12.4 14.0 92 0.7 NE 22 32 12 17 1010.6 1010.6 0.0
24/04:30pm 14.9 11.3 14.3 96 0.3 NE 26 33 14 18 1010.7 1010.7 0.0
24/04:00pm 14.7 10.3 14.1 96 0.3 NE 30 39 16 21 1011.3 1011.3 0.0
24/03:30pm 15.1 10.1 14.0 93 0.6 NE 33 46 18 25 1011.6 1011.6 0.0
24/03:00pm 15.1 10.6 13.8 92 0.7 NE 30 35 16 19 1012.2 1012.2 0.0
24/02:30pm 14.6 9.5 13.6 94 0.6 NE 33 43 18 23 1012.9 1012.9 0.0
24/02:00pm 14.8 9.7 13.7 93 0.6 NE 33 43 18 23 1013.5 1013.5 0.0
24/01:30pm 14.0 8.7 13.2 95 0.4 NE 33 41 18 22 1014.4 1014.4 0.0
24/01:00pm 14.1 8.4 13.1 94 0.6 NE 35 44 19 24 1014.9 1014.9 0.0
24/12:30pm 14.4 9.1 13.1 92 0.7 NE 33 43 18 23 1015.4 1015.4 0.0
24/12:00pm 13.7 8.2 12.6 93 0.6 NE 33 41 18 22 1016.0 1016.0 0.0
24/11:30am 13.6 6.9 12.2 91 0.8 NE 39 50 21 27 1016.5 1016.5 0.0
24/11:00am 13.6 7.7 11.3 86 1.2 NNE 33 46 18 25 1017.1 1017.1 0.0
24/10:30am 14.2 8.3 11.0 81 1.7 NE 33 48 18 26 1017.6 1017.6 0.0
24/10:00am 13.6 6.6 9.8 78 1.9 NE 37 52 20 28 1017.9 1017.9 0.0
24/09:51am 13.5 7.2 9.6 77 2.0 NE 33 52 18 28 1018.0 1018.0 0.0
24/09:30am 13.4 6.3 9.5 77 2.0 NE 37 44 20 24 1018.2 1018.2 0.0
24/09:00am 13.3 6.0 8.6 73 2.3 NE 37 48 20 26 1019.2 1019.2 0.0
24/08:30am 13.3 6.2 8.2 71 2.5 NNE 35 48 19 26 1019.6 1019.6 0.0
24/08:00am 12.9 6.3 7.8 71 2.5 NNE 32 46 17 25 1019.9 1019.9 0.0
24/07:30am 12.5 5.1 6.8 68 2.7 NNE 35 44 19 24 1020.3 1020.3 0.0
24/07:00am 12.1 4.0 6.8 70 2.5 NE 39 50 21 27 1020.2 1020.2 0.0
24/06:30am 12.0 5.2 6.9 71 2.4 NNE 32 46 17 25 1020.7 1020.7 0.0
24/06:00am 11.5 4.6 6.4 71 2.4 NNE 32 43 17 23 1020.8 1020.8 0.0
24/05:30am 11.5 4.6 6.6 72 2.3 NNE 32 41 17 22 1021.0 1021.0 0.0
24/05:00am 11.3 4.2 6.6 73 2.2 NE 33 41 18 22 1021.0 1021.0 0.0
24/04:30am 11.1 5.0 6.5 73 2.2 NNE 28 37 15 20 1021.5 1021.5 0.0
24/04:00am 10.5 7.1 6.1 74 2.0 N 13 22 7 12 1022.1 1022.1 0.0
24/03:30am 10.8 7.0 6.0 72 2.2 N 15 22 8 12 1022.7 1022.7 0.0
24/03:00am 10.8 6.7 6.4 74 2.1 NNE 17 26 9 14 1022.9 1022.9 0.0
24/02:30am 10.4 6.6 5.8 73 2.1 NNE 15 22 8 12 1023.3 1023.3 0.0
24/02:00am 9.8 7.1 5.4 74 2.0 N 9 17 5 9 1023.8 1023.8 0.0
24/01:30am 10.9 7.8 5.7 70 2.4 N 11 19 6 10 1024.1 1024.1 0.0
24/01:00am 10.4 6.6 5.6 72 2.2 NNE 15 22 8 12 1024.5 1024.5 0.0
24/12:30am 10.7 7.3 5.9 72 2.2 NNE 13 22 7 12 1024.7 1024.7 0.0
24/12:00am 10.4 6.2 5.6 72 2.2 NNE 17 24 9 13 1024.9 1024.9 0.0
 
Date/Time
EDT
Tmp

°C
App
Tmp
°C
Dew
Point
°C
Rel
Hum
%
Delta-T

°C
Wind Press
QNH
hPa
Press
MSL
hPa
Rain
since
9 am
mm
Dir
 
Spd
km/h
Gust
km/h
Spd
kts
Gust
kts
23/11:30pm 10.9 6.7 5.9 71 2.3 NNE 17 28 9 15 1025.4 1025.5 0.0
23/11:00pm 10.5 5.7 5.5 71 2.3 NNE 20 28 11 15 1025.2 1025.2 0.0
23/10:30pm 10.9 4.3 6.1 72 2.2 NE 30 41 16 22 1025.1 1025.1 0.0
23/10:00pm 10.8 5.3 5.8 71 2.3 NNE 24 33 13 18 1025.5 1025.6 0.0
23/09:30pm 11.0 5.1 5.7 70 2.4 NE 26 32 14 17 1025.9 1026.0 0.0
23/09:00pm 11.2 5.7 5.9 70 2.4 NE 24 32 13 17 1026.1 1026.2 0.0
23/08:30pm 11.3 6.2 6.2 71 2.4 ENE 22 26 12 14 1026.0 1026.1 0.0
23/08:00pm 11.3 6.2 6.0 70 2.5 ENE 22 30 12 16 1025.9 1026.0 0.0
23/07:30pm 11.4 6.3 6.1 70 2.5 E 22 28 12 15 1026.0 1026.1 0.0
23/07:00pm 11.8 5.2 6.1 68 2.7 ENE 30 39 16 21 1025.6 1025.7 0.0
23/06:30pm 12.3 6.5 6.4 67 2.8 ENE 26 33 14 18 1025.5 1025.6 0.0
23/06:00pm 12.7 6.9 6.1 64 3.1 ENE 26 32 14 17 1025.6 1025.7 0.0
23/05:30pm 13.1 7.2 5.8 61 3.4 ENE 26 32 14 17 1025.4 1025.5 0.0
23/05:00pm 13.3 7.8 5.7 60 3.6 ENE 24 32 13 17 1025.3 1025.3 0.0
23/04:30pm 13.9 8.6 6.7 62 3.5 ENE 24 32 13 17 1025.3 1025.3 0.0
23/04:00pm 14.3 9.1 7.1 62 3.5 ENE 24 33 13 18 1025.2 1025.2 0.0
23/03:30pm 14.0 7.7 5.9 58 3.8 NE 28 35 15 19 1025.1 1025.1 0.0
23/03:00pm 14.8 9.4 6.4 57 4.0 NE 24 37 13 20 1025.1 1025.1 0.0
23/02:30pm 15.0 9.7 6.6 57 4.1 NE 24 30 13 16 1025.4 1025.5 0.0
23/02:00pm 15.1 10.6 6.9 58 4.0 NNE 20 28 11 15 1025.4 1025.5 0.0
23/01:30pm 14.7 12.1 6.3 57 4.0 SSW 9 15 5 8 1025.5 1025.6 0.0
23/01:00pm 13.7 10.9 5.3 57 3.9 SW 9 11 5 6 1025.5 1025.6 0.0
23/12:30pm 13.7 11.1 6.1 60 3.6 SSW 9 13 5 7 1025.8 1025.9 0.0
23/12:00pm 13.4 10.4 5.8 60 3.6 SSW 11 15 6 8 1026.1 1026.2 0.0
23/11:30am 13.0 9.9 5.4 60 3.5 S 11 13 6 7 1026.2 1026.3 0.0
23/11:00am 13.0 9.8 4.9 58 3.7 S 11 15 6 8 1026.4 1026.5 0.0
23/10:30am 13.0 10.3 5.7 61 3.4 S 9 15 5 8 1026.4 1026.5 0.0
23/10:00am 12.5 8.8 4.7 59 3.5 SSE 13 17 7 9 1026.3 1026.4 0.0
23/09:30am 12.3 8.4 5.2 62 3.3 SSE 15 20 8 11 1026.3 1026.4 0.0
23/09:00am 11.7 8.2 5.3 65 2.9 SSW 13 20 7 11 1026.1 1026.2 0.0
23/08:30am 11.7 7.5 5.8 67 2.7 SSW 17 24 9 13 1025.7 1025.8 0.0
23/08:00am 12.1 7.5 5.5 64 3.0 SSW 19 24 10 13 1025.5 1025.6 0.0
23/07:30am 11.4 6.2 5.7 68 2.6 S 22 28 12 15 1025.0 1025.0 0.0
23/07:00am 11.4 6.2 5.5 67 2.7 S 22 32 12 17 1024.3 1024.3 0.0
23/06:30am 11.3 6.8 6.2 71 2.4 S 19 24 10 13 1023.9 1023.9 0.0
23/06:00am 11.4 7.0 6.7 73 2.2 SSW 19 26 10 14 1023.4 1023.4 0.0
23/05:30am 11.4 6.0 6.5 72 2.3 S 24 33 13 18 1022.8 1022.8 0.0
23/05:00am 11.4 6.0 6.5 72 2.3 S 24 32 13 17 1022.6 1022.6 0.0
23/04:30am 11.5 5.4 6.8 73 2.2 S 28 35 15 19 1022.2 1022.2 0.0
23/04:00am 11.7 4.8 7.2 74 2.2 SSW 33 46 18 25 1022.0 1022.0 0.0
23/03:30am 11.9 5.7 7.8 76 2.0 SSW 30 37 16 20 1021.8 1021.8 0.0
23/03:00am 11.8 4.8 8.5 80 1.6 SSW 35 43 19 23 1021.7 1021.7 0.0
23/02:30am 11.6 5.6 8.8 83 1.4 SSW 30 37 16 20 1021.8 1021.8 0.0
23/02:00am 12.1 5.0 9.7 85 1.2 SSW 37 46 20 25 1021.2 1021.2 0.0
23/01:30am 12.3 6.2 10.5 89 0.9 SSW 33 44 18 24 1021.3 1021.3 0.0
23/01:00am 12.8 6.5 11.2 90 0.8 SSW 35 46 19 25 1020.9 1020.9 0.0
23/12:30am 13.3 7.0 11.2 87 1.1 SSW 35 46 19 25 1020.5 1020.5 0.0
23/12:00am 13.6 7.7 11.0 84 1.4 S 33 41 18 22 1020.1 1020.1 0.0
 
Date/Time
EDT
Tmp

°C
App
Tmp
°C
Dew
Point
°C
Rel
Hum
%
Delta-T

°C
Wind Press
QNH
hPa
Press
MSL
hPa
Rain
since
9 am
mm
Dir
 
Spd
km/h
Gust
km/h
Spd
kts
Gust
kts
22/11:30pm 13.7 7.0 11.0 84 1.4 SSW 37 46 20 25 1019.4 1019.4 0.0
22/11:00pm 13.7 7.1 11.4 86 1.2 SSW 37 46 20 25 1019.3 1019.3 0.0
22/10:30pm 13.9 8.8 11.9 88 1.1 S 30 39 16 21 1019.0 1019.0 0.0
22/10:00pm 13.9 8.2 11.9 88 1.1 S 33 41 18 22 1018.7 1018.7 0.0
22/09:30pm 14.2 11.7 12.4 89 1.0 S 17 28 9 15 1018.4 1018.4 0.0
22/09:00pm 14.1 11.2 12.3 89 1.0 SSE 19 24 10 13 1017.9 1017.9 0.0
22/08:30pm 14.3 10.5 12.3 88 1.1 SSE 24 30 13 16 1017.4 1017.4 0.0
22/08:00pm 14.7 9.0 11.8 83 1.6 SSE 33 44 18 24 1016.4 1016.4 0.0
22/07:30pm 15.3 9.0 11.1 76 2.2 S 35 43 19 23 1015.5 1015.5 0.0
22/07:19pm 15.8 9.4 10.8 72 2.7 S 35 41 19 22 1015.4 1015.4 0.0
22/07:00pm 16.9 15.8 12.0 73 2.7 NE 9 19 5 10 1014.8 1014.8 0.0
22/06:30pm 17.0 14.8 12.1 73 2.7 NE 15 19 8 10 1013.7 1013.7 0.0
22/06:00pm 17.1 15.7 12.2 73 2.7 NE 11 15 6 8 1014.3 1014.3 0.0
22/05:30pm 17.9 15.3 11.9 68 3.3 NE 17 26 9 14 1013.7 1013.7 0.0
22/05:00pm 17.9 13.7 12.4 70 3.1 NE 26 30 14 16 1013.3 1013.3 0.0
22/04:30pm 18.0 14.4 11.8 67 3.4 NE 22 28 12 15 1013.8 1013.8 0.0
22/04:00pm 19.4 16.2 11.9 62 4.2 NE 20 24 11 13 1014.0 1014.0 0.0
22/03:30pm 19.8 16.4 12.6 63 4.0 ENE 22 26 12 14 1013.9 1013.9 0.0
22/03:00pm 19.6 15.3 12.1 62 4.2 NE 26 33 14 18 1013.9 1013.9 0.0
22/02:30pm 20.8 16.2 11.2 54 5.3 NE 26 32 14 17 1014.0 1014.0 0.0
22/02:00pm 20.4 15.4 10.8 54 5.2 NE 28 33 15 18 1014.4 1014.4 0.0
22/01:30pm 19.7 14.5 10.4 55 5.0 NE 28 33 15 18 1014.9 1014.9 0.0
22/01:00pm 18.8 14.2 11.1 61 4.2 ENE 26 32 14 17 1015.4 1015.4 0.0
22/12:30pm 18.5 13.8 10.6 60 4.3 NE 26 32 14 17 1015.8 1015.8 0.0
22/12:00pm 18.1 12.8 9.7 58 4.4 NE 28 33 15 18 1016.5 1016.5 0.0
22/11:30am 17.4 12.2 10.1 62 3.9 ENE 28 32 15 17 1017.1 1017.1 0.0
22/11:00am 16.8 12.3 10.0 64 3.6 ENE 24 28 13 15 1017.7 1017.7 0.0
22/10:30am 16.2 12.5 9.6 65 3.4 ENE 19 22 10 12 1018.3 1018.3 0.0
22/10:00am 14.5 10.4 8.5 67 3.0 ENE 20 26 11 14 1018.7 1018.7 0.0
22/09:30am 15.2 11.1 8.7 65 3.3 NE 20 26 11 14 1019.0 1019.0 0.0
22/09:00am 15.7 11.7 8.9 64 3.5 NE 20 24 11 13 1019.2 1019.2 0.0
22/08:30am 14.9 11.9 7.9 63 3.5 NNE 13 20 7 11 1019.8 1019.8 0.0
22/08:00am 13.0 8.5 7.0 67 2.9 NNE 20 26 11 14 1020.0 1020.0 0.0
22/07:30am 13.0 8.5 6.8 66 3.0 NNE 20 28 11 15 1020.2 1020.2 0.0
22/07:00am 12.3 7.8 6.8 69 2.6 NE 20 32 11 17 1020.5 1020.5 0.0
22/06:30am 11.7 6.3 6.4 70 2.5 NE 24 35 13 19 1020.8 1020.8 0.0
22/06:00am 11.1 6.5 6.5 73 2.2 NNE 20 26 11 14 1021.1 1021.1 0.0
22/05:30am 11.2 5.5 6.5 73 2.2 NE 26 33 14 18 1021.1 1021.1 0.0
22/05:00am 10.9 6.3 6.5 74 2.1 ENE 20 26 11 14 1021.6 1021.6 0.0
22/04:30am 10.9 5.9 6.5 74 2.1 ENE 22 28 12 15 1021.9 1021.9 0.0
22/04:00am 11.2 7.4 5.9 70 2.5 NE 15 22 8 12 1022.5 1022.5 0.0
22/03:30am 10.8 6.8 6.6 75 2.0 NE 17 22 9 12 1022.8 1022.8 0.0
22/03:00am 10.9 7.6 6.6 75 2.0 NE 13 17 7 9 1023.3 1023.3 0.0
22/02:30am 11.4 10.2 6.3 71 2.4 NNE 2 7 1 4 1024.0 1024.0 0.0
22/02:00am 11.9 8.4 7.0 72 2.3 NNE 15 24 8 13 1024.1 1024.1 0.0
22/01:30am 12.3 8.5 7.4 72 2.4 NE 17 32 9 17 1024.5 1024.5 0.0
22/01:00am 12.2 8.0 7.5 73 2.3 NE 19 28 10 15 1024.8 1024.8 0.0
22/12:30am 11.7 8.5 8.6 81 1.5 ENE 15 19 8 10 1025.2 1025.2 0.0
22/12:00am 11.8 8.0 9.0 83 1.4 NE 19 22 10 12 1025.7 1025.8 0.0

Latest Capital City Observations: Canberra | Sydney | Melbourne | Brisbane | Adelaide | Perth | Hobart | Darwin

Other Formats:

Comma delimited format used in spreadsheet applications
http://www.bom.gov.au/fwo/IDT60901/IDT60901.94951.axf

JavaScript Object Notation format (JSON) in row-major order
http://www.bom.gov.au/fwo/IDT60901/IDT60901.94951.json